createdAt,value
2022-11-09T00:02:10.600Z,72.31
2022-11-09T00:04:42.257Z,71.90
2022-11-09T00:07:14.111Z,71.99
2022-11-09T00:09:45.954Z,71.74
2022-11-09T00:12:17.543Z,72.00
2022-11-09T00:14:49.136Z,71.58
2022-11-09T00:17:20.706Z,71.47
2022-11-09T00:19:54.954Z,71.47
2022-11-09T00:22:28.533Z,72.08
2022-11-09T00:25:00.540Z,71.49
2022-11-09T00:27:32.156Z,72.01
2022-11-09T00:30:04.047Z,71.88
2022-11-09T00:32:35.831Z,72.27
2022-11-09T00:35:07.806Z,71.74
2022-11-09T00:37:39.988Z,72.06
2022-11-09T00:40:12.147Z,71.93
2022-11-09T00:42:43.742Z,72.39
2022-11-09T00:45:15.404Z,72.29
2022-11-09T00:47:47.027Z,72.28
2022-11-09T00:50:19.143Z,72.49
2022-11-09T00:52:50.827Z,72.83
2022-11-09T00:55:23.983Z,72.35
2022-11-09T00:57:56.702Z,72.84
2022-11-09T01:00:28.945Z,72.67
2022-11-09T01:03:00.602Z,73.26
2022-11-09T01:05:32.220Z,73.44
2022-11-09T01:08:03.863Z,73.06
2022-11-09T01:10:42.510Z,72.65
2022-11-09T01:13:15.978Z,73.18
2022-11-09T01:15:50.196Z,73.21
2022-11-09T01:18:22.374Z,73.37
2022-11-09T01:20:53.976Z,73.17
2022-11-09T01:23:25.649Z,72.72
2022-11-09T01:26:01.654Z,73.02
2022-11-09T01:28:33.660Z,73.17
2022-11-09T01:31:14.822Z,72.95
2022-11-09T01:33:46.873Z,73.00
2022-11-09T01:36:24.256Z,73.59
2022-11-09T01:38:56.083Z,73.42
2022-11-09T01:41:28.957Z,73.16
2022-11-09T01:44:16.240Z,73.43
2022-11-09T01:46:53.951Z,73.90
2022-11-09T01:49:43.859Z,73.66
2022-11-09T01:52:27.352Z,73.51
2022-11-09T01:55:05.416Z,73.92
2022-11-09T01:57:43.197Z,73.72
2022-11-09T02:00:16.726Z,73.47
2022-11-09T02:02:53.029Z,73.84
2022-11-09T02:05:29.839Z,73.57
2022-11-09T02:08:03.397Z,73.84
2022-11-09T02:10:37.918Z,73.37
2022-11-09T02:13:12.528Z,73.84
2022-11-09T02:15:45.820Z,74.12
2022-11-09T02:18:18.359Z,74.04
2022-11-09T02:20:55.140Z,74.02
2022-11-09T02:23:29.192Z,74.10
2022-11-09T02:26:09.768Z,74.46
2022-11-09T02:28:42.446Z,74.25
2022-11-09T02:31:17.012Z,74.71
2022-11-09T02:33:50.820Z,74.19
2022-11-09T02:36:26.443Z,74.51
2022-11-09T02:38:58.358Z,74.64
2022-11-09T02:41:31.897Z,74.65
2022-11-09T02:44:04.367Z,74.14
2022-11-09T02:46:37.114Z,74.62
2022-11-09T02:49:08.966Z,75.17
2022-11-09T02:51:41.541Z,75.25
2022-11-09T02:54:13.136Z,75.55
2022-11-09T02:56:45.540Z,75.74
2022-11-09T02:59:17.185Z,76.43
2022-11-09T03:01:48.824Z,76.06
2022-11-09T03:04:20.456Z,76.28
2022-11-09T03:06:54.284Z,76.81
2022-11-09T03:09:25.913Z,76.45
2022-11-09T03:11:57.722Z,76.34
2022-11-09T03:14:29.347Z,75.86
2022-11-09T03:17:02.563Z,76.52
2022-11-09T03:19:34.149Z,76.37
2022-11-09T03:22:05.822Z,76.28
2022-11-09T03:24:37.380Z,76.33
2022-11-09T03:27:09.524Z,76.54
2022-11-09T03:29:41.134Z,77.10
2022-11-09T03:32:12.977Z,77.26
2022-11-09T03:34:44.955Z,78.10
2022-11-09T03:37:18.643Z,78.05
2022-11-09T03:39:52.389Z,77.33
2022-11-09T03:42:23.969Z,77.73
2022-11-09T03:44:55.637Z,78.23
2022-11-09T03:47:32.301Z,78.35
2022-11-09T03:50:03.814Z,77.79
2022-11-09T03:52:36.582Z,78.13
2022-11-09T03:55:08.596Z,78.11
2022-11-09T03:57:44.533Z,78.17
2022-11-09T04:00:18.918Z,78.28
2022-11-09T04:02:52.127Z,78.74
2022-11-09T04:05:23.888Z,78.26
2022-11-09T04:07:57.589Z,78.60
2022-11-09T04:10:29.204Z,78.47
2022-11-09T04:13:03.627Z,78.57
2022-11-09T04:15:35.336Z,78.90
2022-11-09T04:18:06.883Z,80.30
2022-11-09T04:20:38.930Z,79.81
2022-11-09T04:23:12.540Z,79.58
2022-11-09T04:25:46.096Z,80.29
2022-11-09T04:28:23.043Z,80.48
2022-11-09T04:30:54.661Z,80.43
2022-11-09T04:33:26.225Z,80.66
2022-11-09T04:36:05.340Z,80.09
2022-11-09T04:38:36.927Z,80.60
2022-11-09T04:41:08.547Z,80.55
2022-11-09T04:43:40.130Z,80.54
2022-11-09T04:46:11.767Z,80.26
2022-11-09T04:48:44.721Z,80.55
2022-11-09T04:51:19.674Z,80.27
2022-11-09T04:53:51.313Z,79.98
2022-11-09T04:56:22.927Z,79.69
2022-11-09T04:58:54.481Z,79.92
2022-11-09T05:01:26.052Z,80.66
2022-11-09T05:04:00.548Z,80.65
2022-11-09T05:06:32.327Z,80.02
2022-11-09T05:09:06.437Z,80.95
2022-11-09T05:11:38.222Z,80.80
2022-11-09T05:14:09.829Z,80.89
2022-11-09T05:16:41.618Z,80.63
2022-11-09T05:19:13.188Z,80.38
2022-11-09T05:21:44.792Z,80.71
2022-11-09T05:24:16.336Z,80.86
2022-11-09T05:26:47.961Z,80.35
2022-11-09T05:29:19.505Z,80.53
2022-11-09T05:31:52.594Z,80.56
2022-11-09T05:34:24.248Z,80.32
2022-11-09T05:37:00.711Z,80.30
2022-11-09T05:39:34.780Z,80.19
2022-11-09T05:42:10.310Z,79.75
2022-11-09T05:44:41.871Z,80.27
2022-11-09T05:47:13.780Z,80.72
2022-11-09T05:49:45.337Z,80.22
2022-11-09T05:52:16.933Z,80.39
2022-11-09T05:54:48.479Z,80.54
2022-11-09T05:57:20.048Z,80.88
2022-11-09T05:59:51.655Z,80.83
2022-11-09T06:02:23.716Z,80.83
2022-11-09T06:04:55.392Z,80.53
2022-11-09T06:07:27.026Z,80.55
2022-11-09T06:09:58.589Z,80.56
2022-11-09T06:12:33.026Z,80.19
2022-11-09T06:15:05.843Z,80.41
2022-11-09T06:17:37.405Z,80.24
2022-11-09T06:20:09.307Z,80.10
2022-11-09T06:22:40.855Z,80.07
2022-11-09T06:25:12.380Z,79.73
2022-11-09T06:27:43.928Z,79.32
2022-11-09T06:30:16.038Z,79.97
2022-11-09T06:32:47.792Z,80.12
2022-11-09T06:35:19.392Z,79.52
2022-11-09T06:37:58.717Z,78.90
2022-11-09T06:40:31.559Z,78.94
2022-11-09T06:43:03.805Z,79.31
2022-11-09T06:45:35.976Z,79.45
2022-11-09T06:48:07.537Z,78.90
2022-11-09T06:50:39.396Z,78.43
2022-11-09T06:53:13.064Z,78.87
2022-11-09T06:55:50.340Z,78.52
2022-11-09T06:58:22.571Z,78.16
2022-11-09T07:00:54.671Z,77.91
2022-11-09T07:03:26.668Z,77.93
2022-11-09T07:05:58.261Z,77.51
2022-11-09T07:08:29.802Z,77.55
2022-11-09T07:11:12.885Z,77.91
2022-11-09T07:13:44.555Z,77.45
2022-11-09T07:16:20.613Z,77.15
2022-11-09T07:18:52.313Z,77.06
2022-11-09T07:21:24.092Z,76.91
2022-11-09T07:23:55.647Z,77.25
2022-11-09T07:26:27.505Z,76.49
2022-11-09T07:28:59.089Z,76.44
2022-11-09T07:31:31.935Z,76.77
2022-11-09T07:34:04.950Z,76.91
2022-11-09T07:36:39.215Z,76.68
2022-11-09T07:39:10.837Z,77.01
2022-11-09T07:41:42.435Z,77.67
2022-11-09T07:44:18.222Z,77.31
2022-11-09T07:46:49.828Z,77.39
2022-11-09T07:49:21.750Z,77.41
2022-11-09T07:51:53.544Z,77.10
2022-11-09T07:54:27.974Z,77.10
2022-11-09T07:56:59.527Z,77.39
2022-11-09T07:59:31.637Z,77.09
2022-11-09T08:02:03.263Z,77.04
2022-11-09T08:04:34.843Z,77.19
2022-11-09T08:07:08.426Z,77.40
2022-11-09T08:09:40.087Z,76.92
2022-11-09T08:12:11.624Z,75.98
2022-11-09T08:14:43.214Z,74.93
2022-11-09T08:17:14.803Z,75.08
2022-11-09T08:19:46.346Z,72.99
2022-11-09T08:22:17.898Z,72.66
2022-11-09T08:24:49.455Z,72.29
2022-11-09T08:27:22.817Z,70.04
2022-11-09T08:29:54.481Z,68.20
2022-11-09T08:32:26.104Z,66.66
2022-11-09T08:34:57.676Z,66.30
2022-11-09T08:37:29.552Z,64.39
2022-11-09T08:40:01.387Z,62.17
2022-11-09T08:42:33.186Z,60.33
2022-11-09T08:45:05.487Z,59.59
2022-11-09T08:47:38.645Z,60.40
2022-11-09T08:50:11.815Z,61.20
2022-11-09T08:52:43.408Z,59.64
2022-11-09T08:55:15.022Z,59.92
2022-11-09T08:57:46.838Z,59.69
2022-11-09T09:00:18.760Z,60.54
2022-11-09T09:02:50.481Z,61.16
2022-11-09T09:05:23.071Z,61.93
2022-11-09T09:07:54.820Z,62.14
2022-11-09T09:10:27.103Z,62.56
2022-11-09T09:12:58.719Z,61.40
2022-11-09T09:15:34.445Z,60.35
2022-11-09T09:18:06.147Z,59.51
2022-11-09T09:20:37.823Z,59.14
2022-11-09T09:23:09.413Z,58.28
2022-11-09T09:25:41.267Z,58.48
2022-11-09T09:28:12.862Z,57.43
2022-11-09T09:30:44.483Z,56.44
2022-11-09T09:33:16.173Z,56.52
2022-11-09T09:35:47.767Z,54.42
2022-11-09T09:38:19.559Z,52.34
2022-11-09T09:41:13.894Z,51.76
2022-11-09T09:43:49.687Z,51.71
2022-11-09T09:46:40.075Z,49.99
2022-11-09T09:49:23.330Z,50.42
2022-11-09T09:52:13.113Z,50.36
2022-11-09T09:55:09.995Z,50.20
2022-11-09T09:57:43.317Z,49.46
2022-11-09T10:00:25.192Z,49.13
2022-11-09T10:02:56.862Z,47.79
2022-11-09T10:05:48.798Z,47.48
2022-11-09T10:08:46.795Z,46.06
2022-11-09T10:12:01.432Z,45.40
2022-11-09T10:15:03.849Z,45.65
2022-11-09T10:17:54.276Z,46.41
2022-11-09T10:20:50.416Z,44.96
2022-11-09T10:23:31.924Z,42.56
2022-11-09T10:26:16.006Z,42.59
2022-11-09T10:29:15.022Z,43.22
2022-11-09T10:31:49.897Z,44.00
2022-11-09T10:34:40.400Z,43.35
2022-11-09T10:37:21.328Z,43.44
2022-11-09T10:40:00.420Z,43.97
2022-11-09T10:42:54.684Z,43.97
2022-11-09T10:45:46.163Z,43.64
2022-11-09T10:48:38.882Z,44.00
2022-11-09T10:51:37.864Z,44.11
2022-11-09T10:54:37.927Z,44.31
2022-11-09T10:57:28.484Z,44.47
2022-11-09T11:00:21.958Z,45.52
2022-11-09T11:03:17.639Z,46.45
2022-11-09T11:06:25.972Z,46.51
2022-11-09T11:09:21.914Z,45.95
2022-11-09T11:12:22.203Z,45.54
2022-11-09T11:15:29.152Z,46.36
2022-11-09T11:18:25.342Z,45.19
2022-11-09T11:21:20.728Z,45.54
2022-11-09T11:24:15.026Z,45.44
2022-11-09T11:27:16.787Z,45.14
2022-11-09T11:30:10.421Z,45.26
2022-11-09T11:33:00.957Z,45.51
2022-11-09T11:36:02.042Z,45.33
2022-11-09T11:39:27.017Z,46.01
2022-11-09T11:42:56.643Z,47.80
2022-11-09T11:45:58.475Z,48.12
2022-11-09T11:49:30.174Z,47.67
2022-11-09T11:52:43.465Z,47.52
2022-11-09T11:56:04.618Z,47.63
2022-11-09T11:59:06.357Z,47.77
2022-11-09T12:02:08.734Z,47.83
2022-11-09T12:05:28.273Z,48.15
2022-11-09T12:08:43.319Z,46.75
2022-11-09T12:11:45.472Z,47.21
2022-11-09T12:14:47.446Z,47.95
2022-11-09T12:17:59.083Z,48.89
2022-11-09T12:21:24.667Z,49.79
2022-11-09T12:24:26.384Z,50.03
2022-11-09T12:27:34.252Z,49.79
2022-11-09T12:30:36.697Z,50.26
2022-11-09T12:33:57.704Z,52.06
2022-11-09T12:36:55.868Z,52.92
2022-11-09T12:39:50.863Z,53.24
2022-11-09T12:43:05.388Z,53.48
2022-11-09T12:45:57.941Z,54.50
2022-11-09T12:48:48.913Z,54.63
2022-11-09T12:51:39.443Z,55.15
2022-11-09T12:54:29.778Z,55.35
2022-11-09T12:57:25.460Z,55.68
2022-11-09T13:00:47.447Z,55.82
2022-11-09T13:03:51.211Z,56.31
2022-11-09T13:06:42.644Z,56.71
2022-11-09T13:09:44.302Z,56.75
2022-11-09T13:12:40.290Z,56.86
2022-11-09T13:15:35.145Z,57.26
2022-11-09T13:18:48.962Z,57.14
2022-11-09T13:21:41.960Z,56.75
2022-11-09T13:24:32.418Z,56.72
2022-11-09T13:27:40.425Z,56.97
2022-11-09T13:30:43.421Z,57.91
2022-11-09T13:33:37.145Z,58.03
2022-11-09T13:36:27.452Z,58.07
2022-11-09T13:39:29.273Z,58.53
2022-11-09T13:42:32.581Z,59.13
2022-11-09T13:45:36.601Z,59.38
2022-11-09T13:48:46.808Z,59.18
2022-11-09T13:51:46.878Z,59.25
2022-11-09T13:54:37.739Z,59.27
2022-11-09T13:57:28.417Z,59.75
2022-11-09T14:00:24.574Z,59.97
2022-11-09T14:03:20.797Z,60.03
2022-11-09T14:06:12.726Z,60.29
2022-11-09T14:09:03.198Z,61.22
2022-11-09T14:12:26.279Z,61.72
2022-11-09T14:15:22.742Z,61.53
2022-11-09T14:18:32.543Z,62.10
2022-11-09T14:21:52.573Z,62.01
2022-11-09T14:24:46.868Z,62.66
2022-11-09T14:27:37.093Z,62.62
2022-11-09T14:30:30.392Z,62.39
2022-11-09T14:33:24.287Z,62.91
2022-11-09T14:36:14.781Z,63.09
2022-11-09T14:39:14.820Z,63.08
2022-11-09T14:42:07.153Z,63.60
2022-11-09T14:44:58.200Z,63.32
2022-11-09T14:47:50.868Z,63.56
2022-11-09T14:50:41.197Z,63.83
2022-11-09T14:53:35.879Z,63.73
2022-11-09T14:56:26.281Z,63.95
2022-11-09T14:59:32.575Z,64.14
2022-11-09T15:02:23.952Z,64.09
2022-11-09T15:05:39.044Z,64.31
2022-11-09T15:08:30.161Z,64.29
2022-11-09T15:11:21.708Z,64.51
2022-11-09T15:14:32.632Z,64.98
2022-11-09T15:17:27.212Z,65.01
2022-11-09T15:20:17.100Z,65.04
2022-11-09T15:23:22.961Z,64.73
2022-11-09T15:26:40.047Z,64.91
2022-11-09T15:29:40.869Z,64.85
2022-11-09T15:32:39.093Z,64.71
2022-11-09T15:35:29.494Z,64.91
2022-11-09T15:38:41.382Z,65.14
2022-11-09T15:41:31.852Z,65.07
2022-11-09T15:44:22.265Z,65.19
2022-11-09T15:47:35.710Z,65.38
2022-11-09T15:50:27.448Z,65.49
2022-11-09T15:53:17.595Z,65.39
2022-11-09T15:56:19.961Z,65.62
2022-11-09T15:59:28.179Z,65.66
2022-11-09T16:02:21.353Z,65.74
2022-11-09T16:05:12.359Z,66.05
2022-11-09T16:08:02.799Z,66.22
2022-11-09T16:10:52.692Z,66.33
2022-11-09T16:13:43.156Z,66.46
2022-11-09T16:16:33.698Z,66.45
2022-11-09T16:19:23.553Z,66.57
2022-11-09T16:22:15.901Z,66.55
2022-11-09T16:25:06.355Z,66.61
2022-11-09T16:27:58.524Z,67.00
2022-11-09T16:30:48.474Z,66.93
2022-11-09T16:33:39.631Z,67.47
2022-11-09T16:36:30.425Z,67.80
2022-11-09T16:39:20.621Z,67.63
2022-11-09T16:42:13.192Z,67.92
2022-11-09T16:45:10.298Z,68.02
2022-11-09T16:48:03.444Z,67.95
2022-11-09T16:50:53.762Z,68.14
2022-11-09T16:53:43.729Z,68.24
2022-11-09T16:56:35.300Z,68.06
2022-11-09T16:59:26.581Z,68.49
2022-11-09T17:02:16.502Z,68.34
2022-11-09T17:05:07.238Z,68.98
2022-11-09T17:07:57.455Z,68.53
2022-11-09T17:10:47.737Z,68.42
2022-11-09T17:13:39.084Z,69.48
2022-11-09T17:16:29.426Z,69.50
2022-11-09T17:19:20.498Z,69.32
2022-11-09T17:22:10.585Z,69.33
2022-11-09T17:25:00.890Z,69.36
2022-11-09T17:27:51.143Z,69.83
2022-11-09T17:30:41.977Z,69.62
2022-11-09T17:33:32.246Z,69.99
2022-11-09T17:36:48.915Z,69.98
2022-11-09T17:39:33.348Z,69.72
2022-11-09T17:42:25.720Z,69.59
2022-11-09T17:45:15.827Z,69.69
2022-11-09T17:48:06.312Z,69.62
2022-11-09T17:50:57.703Z,69.83
2022-11-09T17:53:48.490Z,70.10
2022-11-09T17:56:39.851Z,69.55
2022-11-09T17:59:30.009Z,69.39
2022-11-09T18:02:23.132Z,69.70
2022-11-09T18:05:15.713Z,69.50
2022-11-09T18:08:10.171Z,69.89
2022-11-09T18:11:00.182Z,69.62
2022-11-09T18:13:50.356Z,70.01
2022-11-09T18:16:40.704Z,69.66
2022-11-09T18:19:31.112Z,69.48
2022-11-09T18:22:22.410Z,69.60
2022-11-09T18:25:12.738Z,69.67
2022-11-09T18:28:03.296Z,69.45
2022-11-09T18:30:53.210Z,69.10
2022-11-09T18:33:44.105Z,69.61
2022-11-09T18:36:34.413Z,69.65
2022-11-09T18:39:26.541Z,69.21
2022-11-09T18:42:16.584Z,69.20
2022-11-09T18:45:07.766Z,69.06
2022-11-09T18:47:57.964Z,69.03
2022-11-09T18:50:52.898Z,69.20
2022-11-09T18:53:44.916Z,69.48
2022-11-09T18:56:35.028Z,69.30
2022-11-09T18:59:25.415Z,69.31
2022-11-09T19:02:16.776Z,69.28
2022-11-09T19:05:07.016Z,69.09
2022-11-09T19:07:57.375Z,69.00
2022-11-09T19:10:47.504Z,69.43
2022-11-09T19:13:38.741Z,69.43
2022-11-09T19:16:29.285Z,69.43
2022-11-09T19:19:19.741Z,69.29
2022-11-09T19:22:16.947Z,69.52
2022-11-09T19:25:07.530Z,69.81
2022-11-09T19:27:57.533Z,69.69
2022-11-09T19:30:48.756Z,69.75
2022-11-09T19:33:39.152Z,69.86
2022-11-09T19:36:31.263Z,70.55
2022-11-09T19:39:22.154Z,71.01
2022-11-09T19:42:12.277Z,71.87
2022-11-09T19:45:02.799Z,72.00
2022-11-09T19:47:52.986Z,71.50
2022-11-09T19:50:51.520Z,71.86
2022-11-09T19:53:42.828Z,72.16
2022-11-09T19:56:33.502Z,72.45
2022-11-09T19:59:24.294Z,72.42
2022-11-09T20:02:14.386Z,72.67
2022-11-09T20:05:05.113Z,73.21
2022-11-09T20:07:55.199Z,73.39
2022-11-09T20:10:45.305Z,73.94
2022-11-09T20:13:37.937Z,73.93
2022-11-09T20:16:28.222Z,73.96
2022-11-09T20:19:18.672Z,73.92
2022-11-09T20:22:08.841Z,73.98
2022-11-09T20:24:59.251Z,74.86
2022-11-09T20:27:49.679Z,74.52
2022-11-09T20:30:40.721Z,75.06
2022-11-09T20:33:30.628Z,75.22
2022-11-09T20:36:20.896Z,75.44
2022-11-09T20:39:11.344Z,75.17
2022-11-09T20:42:01.911Z,74.98
2022-11-09T20:44:54.611Z,75.99
2022-11-09T20:48:07.240Z,76.07
2022-11-09T20:50:55.052Z,76.24
2022-11-09T20:53:46.905Z,76.83
2022-11-09T20:56:40.347Z,76.50
2022-11-09T20:59:30.608Z,76.62
2022-11-09T21:02:20.778Z,76.60
2022-11-09T21:05:11.193Z,76.39
2022-11-09T21:08:01.538Z,77.47
2022-11-09T21:10:52.128Z,77.50
2022-11-09T21:13:44.029Z,77.89
2022-11-09T21:16:34.348Z,77.81
2022-11-09T21:19:24.744Z,77.60
2022-11-09T21:22:14.952Z,78.40
2022-11-09T21:25:26.251Z,78.08
2022-11-09T21:28:35.239Z,78.29
2022-11-09T21:31:25.513Z,77.90
2022-11-09T21:34:15.789Z,78.45
2022-11-09T21:37:06.343Z,79.01
2022-11-09T21:39:56.263Z,79.24
2022-11-09T21:42:46.531Z,78.84
2022-11-09T21:45:36.688Z,78.84
2022-11-09T21:48:27.252Z,78.74
2022-11-09T21:51:18.600Z,78.89
2022-11-09T21:54:09.722Z,79.02
2022-11-09T21:57:00.186Z,78.63
2022-11-09T21:59:50.557Z,78.91
2022-11-09T22:02:41.891Z,78.85
2022-11-09T22:05:36.640Z,78.97
2022-11-09T22:08:26.728Z,79.06
2022-11-09T22:11:19.849Z,78.98
2022-11-09T22:14:30.928Z,79.42
2022-11-09T22:17:21.321Z,79.70
2022-11-09T22:20:30.336Z,79.46
2022-11-09T22:23:23.782Z,79.42
2022-11-09T22:26:14.516Z,79.29
2022-11-09T22:29:05.353Z,79.52
2022-11-09T22:31:55.959Z,79.71
2022-11-09T22:34:45.981Z,79.79
2022-11-09T22:37:36.357Z,79.90
2022-11-09T22:40:26.644Z,79.93
2022-11-09T22:43:17.009Z,80.29
2022-11-09T22:46:16.475Z,80.93
2022-11-09T22:49:08.396Z,80.56
2022-11-09T22:51:58.742Z,81.56
2022-11-09T22:54:49.063Z,81.92
2022-11-09T22:57:39.441Z,81.92
2022-11-09T23:00:29.931Z,81.78
2022-11-09T23:03:21.111Z,81.86
2022-11-09T23:06:19.253Z,81.91
2022-11-09T23:09:09.458Z,81.94
2022-11-09T23:11:59.688Z,82.15
2022-11-09T23:15:05.280Z,82.04
2022-11-09T23:18:15.777Z,81.96
2022-11-09T23:21:06.043Z,82.20
2022-11-09T23:23:59.622Z,82.22
2022-11-09T23:26:49.958Z,82.22
2022-11-09T23:29:40.124Z,81.84
2022-11-09T23:32:30.382Z,82.70
2022-11-09T23:35:20.564Z,82.76
2022-11-09T23:38:11.667Z,82.88
2022-11-09T23:41:02.925Z,82.28
2022-11-09T23:43:55.430Z,82.55
2022-11-09T23:46:48.425Z,82.60
2022-11-09T23:49:38.674Z,82.31
2022-11-09T23:52:28.942Z,82.28
2022-11-09T23:55:19.290Z,82.59
2022-11-09T23:58:09.501Z,82.17
